首页
METAR-TAF:

METAR-TAF

机场 :

杜布罗夫尼克机场

杜布羅夫尼克, 克罗地亚

纬度: 42-34N, 经度: 018-16E, 海拔: 157米

当前天气观测

该预报发布于16分钟前的11:00 UTC
风速6节,风向多变
温度 11°C
湿度 66%
气压 1022 hPa
能见度10公里或以上
少量云层高于2600英尺
多云层高于5300英尺

METAR: LDDU 191100Z VRB06KT 9999 FEW026 BKN053 11/05 Q1022 NOSIG

时间: 12:16 (11:16 UTC)

预报

该预报发布于5小时和51分钟前的05:25 UTC
预报有效从19日的 06点(UTC)到 20日的 06点(UTC)
风速8节,风向北转东北
能见度10公里或以上
散云层高于1500英尺
阴天层高于2500英尺
几率 30% :
短暂存在
从 19日的 06点(UTC)到 19日的 09点(UTC)
几率 30% :
短暂存在
从 19日的 12点(UTC)到 19日的 16点(UTC)
风速10节,风向西转西北
短暂存在
从 19日的 16点(UTC)到 20日的 06点(UTC)
风速18节,风向北转东北

TAF: LDDU 190525Z 1906/2006 03008KT 9999 SCT015 OVC025 TX11/1913Z TN06/2005Z PROB30 TEMPO 1906/1909 RA PROB30 TEMPO 1912/1916 29010KT TEMPO 1916/2006 02018KT

超过4000个机场的气象观测和天气预报(METAR&TAF报告)。

可查询的气象台以黄色和红色小点在地图上表示。

将鼠标移到小点上方,可查看气象台名称。

然后点击查看天气观测和预报。

如需切换地图:点击带黑十字的绿色按钮放大地图;点击带横线的绿色按钮缩小地图;或者点击绿色箭头查看邻近地区的地图。


METAR-TAF: